メインページ
METAR-TAF:

METAR-TAF

空港 :

カンザスシティ国際空港

カンザスシティ, ミズーリ州, アメリカ合衆国

緯度: 39-17-50N, 経度: 094-43-50W, 海抜: 312m

現時点の気象観測

当レポートは48分前の04:53(UTC)に作成
の風 6kt
気温 22°C
湿度 83%
気圧 1014 hPa
視程: 16.1km
晴天

METAR: KMCI 210453Z 35006KT 10SM CLR 22/19 A2995 RMK AO2 SLP130 T02170194 $

時間: 00:41 (05:41 UTC)

予報

当レポートは21分前の05:20(UTC)に作成
予報は21日の 06時(UTC)から 22日の 06時(UTC)まで有効
北/北西の風 5kt
視程: 10km
高度10000ftの雲はほとんどない
高度20000ftの雲はほとんどない
21日の 1700時(UTC)から
の風 12kt
視程: 10km
高度20000ftの雲はほとんどない
22日の 0000時(UTC)から
北/北東の風 6kt
視程: 10km
高度20000ftの雲はほとんどない

TAF: KMCI 210520Z 2106/2206 33005KT P6SM FEW100 FEW200 FM211700 35012KT P6SM FEW200 FM220000 02006KT P6SM FEW200

4,000以上の空港の気象観測と天気予報(METAR報とTAF報)

利用可能な観測所は地図上に黄色い丸と赤い丸で示す。

丸の上にカーソルを重ねると観測所名を参照できる。

次にクリックすると気象観測と天気予報を参照できる。

マップの切り替え:黒色「×」印の緑ボタンをクリックして拡大、「-」印の緑ボタンをクリックして縮小、緑色の三角印をクリックして隣りの地図に切り替え


METAR-TAF: